Time;durP1;ratioP1;P1;durP2;ratioP2;P2;SDS_P1;SDS_P2;PMS_P1;PMS_P2;Temp;Humidity;BMP_temperature;BMP_pressure;BME280_temperature;BME280_humidity;BME280_pressure;Samples;Min_cycle;Max_cycle;Signal;HPM_P1;HPM_P2
2024/04/15 00:05:12;;;;;;;;;12.67;12.67;;;;;;;;6491901;31;9218;-60
2024/04/15 00:11:18;;;;;;;;;11.67;11.67;;;;;;;;6491680;39;9593;-62
2024/04/15 00:17:25;;;;;;;;;10.33;9.00;;;;;;;;6491237;46;8942;-62
2024/04/15 00:23:27;;;;;;;;;15.33;13.00;;;;;;;;6490520;46;8903;-63
2024/04/15 00:29:34;;;;;;;;;18.67;17.33;;;;;;;;6491537;46;8930;-61
2024/04/15 00:35:42;;;;;;;;;19.00;18.00;;;;;;;;6490622;46;8977;-62
2024/04/15 00:41:49;;;;;;;;;14.33;13.00;;;;;;;;6492674;39;9577;-63
2024/04/15 00:48:04;;;;;;;;;15.00;13.00;;;;;;;;6491028;39;9511;-62
2024/04/15 00:54:12;;;;;;;;;14.33;14.33;;;;;;;;6490539;31;9056;-61
2024/04/15 01:00:18;;;;;;;;;11.33;11.33;;;;;;;;6491350;39;9574;-61
2024/04/15 01:06:24;;;;;;;;;16.67;12.33;;;;;;;;6490018;39;8974;-62
2024/04/15 01:12:54;;;;;;;;;11.00;11.00;;;;;;;;6491494;39;8911;-62
2024/04/15 01:19:01;;;;;;;;;10.00;10.00;;;;;;;;6490724;39;8922;-61
2024/04/15 01:25:08;;;;;;;;;12.00;11.33;;;;;;;;6491943;39;8880;-62
2024/04/15 01:31:16;;;;;;;;;10.33;10.00;;;;;;;;6490168;39;9022;-60
2024/04/15 01:37:29;;;;;;;;;11.00;11.00;;;;;;;;6490504;39;9574;-60
2024/04/15 01:43:32;;;;;;;;;13.00;12.00;;;;;;;;6491339;31;9034;-61
2024/04/15 01:49:38;;;;;;;;;15.33;12.33;;;;;;;;6489684;31;9010;-61
2024/04/15 01:55:47;;;;;;;;;14.33;13.33;;;;;;;;6490737;47;9026;-62
2024/04/15 02:01:55;;;;;;;;;4.00;3.00;;;;;;;;6490367;31;9038;-61
2024/04/15 02:08:06;;;;;;;;;10.67;10.00;;;;;;;;6490628;39;8990;-62
2024/04/15 02:14:21;;;;;;;;;18.00;13.67;;;;;;;;6490477;39;8847;-60
2024/04/15 02:20:26;;;;;;;;;8.33;7.33;;;;;;;;6489722;47;8827;-63
2024/04/15 02:26:31;;;;;;;;;15.67;15.33;;;;;;;;6490040;47;8935;-61
2024/04/15 02:32:42;;;;;;;;;12.33;12.33;;;;;;;;6490123;47;8887;-61
2024/04/15 02:38:55;;;;;;;;;3.00;3.00;;;;;;;;6490482;39;8903;-61
2024/04/15 02:45:04;;;;;;;;;14.00;12.67;;;;;;;;6488266;47;9026;-62
2024/04/15 02:51:13;;;;;;;;;13.67;13.33;;;;;;;;6490068;47;8896;-61
2024/04/15 02:57:17;;;;;;;;;15.67;12.00;;;;;;;;6491303;39;8919;-61
2024/04/15 03:03:22;;;;;;;;;13.67;13.67;;;;;;;;6491206;39;8916;-62
2024/04/15 03:09:28;;;;;;;;;15.67;14.33;;;;;;;;6491140;39;9571;-62
2024/04/15 03:15:33;;;;;;;;;12.67;12.67;;;;;;;;6490062;46;9033;-61
2024/04/15 03:21:34;;;;;;;;;13.33;12.00;;;;;;;;6491612;31;9050;-61
2024/04/15 03:27:43;;;;;;;;;17.67;17.67;;;;;;;;6489598;39;8984;-62
2024/04/15 03:33:53;;;;;;;;;15.00;15.00;;;;;;;;6490524;39;8887;-63
2024/04/15 03:39:58;;;;;;;;;15.67;15.67;;;;;;;;6490580;31;8851;-60
2024/04/15 03:46:06;;;;;;;;;17.67;16.67;;;;;;;;6491686;39;8931;-60
2024/04/15 03:52:10;;;;;;;;;16.00;14.33;;;;;;;;6490028;46;8949;-60
2024/04/15 03:58:22;;;;;;;;;19.33;18.00;;;;;;;;6490199;31;8935;-61
2024/04/15 04:04:30;;;;;;;;;17.67;17.33;;;;;;;;6471060;46;9018;-62
2024/04/15 04:10:37;;;;;;;;;22.33;19.67;;;;;;;;6493345;39;8883;-61
2024/04/15 04:16:41;;;;;;;;;18.67;15.00;;;;;;;;6493928;39;8834;-62
2024/04/15 04:22:44;;;;;;;;;20.33;18.33;;;;;;;;6492091;39;8907;-63
2024/04/15 04:29:00;;;;;;;;;20.00;18.33;;;;;;;;6493496;46;8977;-61
2024/04/15 04:35:22;;;;;;;;;20.00;20.00;;;;;;;;6491474;39;8960;-61
2024/04/15 04:41:29;;;;;;;;;18.67;17.67;;;;;;;;6493135;31;8966;-63
2024/04/15 04:47:35;;;;;;;;;18.00;17.67;;;;;;;;6494613;31;8967;-61
2024/04/15 04:54:11;;;;;;;;;18.33;17.67;;;;;;;;6493711;39;8981;-78
2024/04/15 05:00:55;;;;;;;;;19.67;18.67;;;;;;;;6498150;46;8867;-78
2024/04/15 05:55:38;;;;;;;;;22.00;22.00;;;;;;;;6490544;47;8919;-79
2024/04/15 06:02:08;;;;;;;;;23.33;22.67;;;;;;;;6488403;47;8949;-81
2024/04/15 06:09:16;;;;;;;;;21.67;21.67;;;;;;;;6493913;39;8995;-78
2024/04/15 06:15:58;;;;;;;;;20.00;20.00;;;;;;;;6486958;39;9024;-80
2024/04/15 06:22:11;;;;;;;;;23.33;21.67;;;;;;;;6488956;47;8872;-80
2024/04/15 06:28:26;;;;;;;;;27.67;24.00;;;;;;;;6500144;39;8987;-80
2024/04/15 06:35:08;;;;;;;;;26.33;25.00;;;;;;;;6497426;39;8981;-78
2024/04/15 06:42:12;;;;;;;;;21.00;20.67;;;;;;;;6489186;31;8939;-80
2024/04/15 06:48:40;;;;;;;;;23.33;22.67;;;;;;;;6489488;39;8965;-79
2024/04/15 06:55:32;;;;;;;;;18.00;18.00;;;;;;;;6489472;31;9011;-79
2024/04/15 07:02:13;;;;;;;;;27.67;27.00;;;;;;;;6494089;39;9006;-79
2024/04/15 07:09:24;;;;;;;;;15.00;15.00;;;;;;;;6489714;39;9104;-78
2024/04/15 07:15:57;;;;;;;;;27.00;25.67;;;;;;;;6490220;31;8979;-81
2024/04/15 07:22:45;;;;;;;;;13.75;13.75;;;;;;;;6486685;46;9031;-80
2024/04/15 07:29:32;;;;;;;;;21.25;19.25;;;;;;;;6485864;39;8993;-79
2024/04/15 07:36:17;;;;;;;;;12.50;12.00;;;;;;;;6491874;39;9753;-81
2024/04/15 07:43:09;;;;;;;;;35.33;33.00;;;;;;;;6481486;39;9709;-81
2024/04/15 07:49:45;;;;;;;;;29.00;26.75;;;;;;;;6490830;46;9075;-80
2024/04/15 08:02:30;;;;;;;;;31.33;30.00;;;;;;;;6487743;39;9598;-79
2024/04/15 08:10:01;;;;;;;;;41.00;33.33;;;;;;;;6489936;46;9005;-83
2024/04/15 08:17:18;;;;;;;;;33.00;30.50;;;;;;;;6490074;46;8982;-77
2024/04/15 08:24:42;;;;;;;;;28.75;28.75;;;;;;;;6491924;31;9036;-76
2024/04/15 08:31:33;;;;;;;;;48.33;39.33;;;;;;;;6495388;39;8993;-68
2024/04/15 08:37:38;;;;;;;;;56.33;46.00;;;;;;;;6489318;39;9954;-68
2024/04/15 08:44:03;;;;;;;;;41.00;35.67;;;;;;;;6486290;39;8973;-68
2024/04/15 08:50:25;;;;;;;;;21.50;18.00;;;;;;;;6487123;39;8973;-66
2024/04/15 08:56:42;;;;;;;;;28.50;26.75;;;;;;;;6489168;39;8974;-69
2024/04/15 09:03:02;;;;;;;;;21.50;21.50;;;;;;;;6488503;31;9504;-67
2024/04/15 09:09:08;;;;;;;;;22.00;21.00;;;;;;;;6489029;39;9080;-67
2024/04/15 09:15:21;;;;;;;;;26.50;25.00;;;;;;;;6488450;46;8959;-70
2024/04/15 09:21:26;;;;;;;;;17.25;16.25;;;;;;;;6487451;46;8909;-65
2024/04/15 09:27:34;;;;;;;;;28.50;27.50;;;;;;;;6488571;39;8950;-67
2024/04/15 09:33:39;;;;;;;;;24.50;22.75;;;;;;;;6489574;31;8989;-68
2024/04/15 09:39:47;;;;;;;;;52.25;41.50;;;;;;;;6488557;39;9100;-69
2024/04/15 09:46:08;;;;;;;;;49.00;42.00;;;;;;;;6489157;39;9007;-67
2024/04/15 09:52:29;;;;;;;;;34.75;33.00;;;;;;;;6484833;31;8978;-66
2024/04/15 09:58:39;;;;;;;;;35.00;31.25;;;;;;;;6487770;39;9061;-68
2024/04/15 10:04:54;;;;;;;;;15.50;15.00;;;;;;;;6489142;39;9101;-67
2024/04/15 10:10:58;;;;;;;;;24.50;23.75;;;;;;;;6488775;39;9555;-68
2024/04/15 10:17:09;;;;;;;;;73.67;62.00;;;;;;;;6489653;31;9647;-67
2024/04/15 10:23:24;;;;;;;;;60.67;48.67;;;;;;;;6491713;39;8928;-68
2024/04/15 10:29:39;;;;;;;;;73.67;59.33;;;;;;;;6489049;46;8939;-68
2024/04/15 10:35:44;;;;;;;;;9.50;9.50;;;;;;;;6490422;39;8978;-66
2024/04/15 10:41:53;;;;;;;;;11.00;11.00;;;;;;;;6489464;39;8903;-65
2024/04/15 10:48:04;;;;;;;;;10.75;9.50;;;;;;;;6487195;39;9008;-65
2024/04/15 10:54:08;;;;;;;;;12.25;11.75;;;;;;;;6490375;31;9016;-67
2024/04/15 11:00:31;;;;;;;;;16.00;14.75;;;;;;;;6489831;39;9020;-64
2024/04/15 11:06:38;;;;;;;;;11.25;9.00;;;;;;;;6488066;31;9160;-65
2024/04/15 11:12:51;;;;;;;;;8.00;8.00;;;;;;;;6484259;46;8943;-63
2024/04/15 11:19:11;;;;;;;;;32.75;28.75;;;;;;;;6489899;39;8948;-65
2024/04/15 11:25:19;;;;;;;;;53.50;43.25;;;;;;;;6490076;31;8914;-65
2024/04/15 11:31:27;;;;;;;;;31.25;29.25;;;;;;;;6489109;39;9104;-65
2024/04/15 11:37:32;;;;;;;;;59.75;48.25;;;;;;;;6488849;39;9085;-65
2024/04/15 11:43:46;;;;;;;;;7.25;7.25;;;;;;;;6488554;39;9970;-65
2024/04/15 11:49:48;;;;;;;;;10.00;10.00;;;;;;;;6488681;39;9048;-66
2024/04/15 11:55:55;;;;;;;;;5.50;5.50;;;;;;;;6490948;31;9052;-67
2024/04/15 12:02:00;;;;;;;;;10.25;10.25;;;;;;;;6488781;31;9038;-67
2024/04/15 12:08:13;;;;;;;;;18.25;18.25;;;;;;;;6489882;31;8978;-66
2024/04/15 12:14:19;;;;;;;;;11.75;11.75;;;;;;;;6489356;46;8924;-67
2024/04/15 12:20:22;;;;;;;;;33.50;28.75;;;;;;;;6485595;31;9095;-66
2024/04/15 12:26:28;;;;;;;;;58.50;46.00;;;;;;;;6490194;31;9655;-66
2024/04/15 12:32:43;;;;;;;;;9.00;8.00;;;;;;;;6489441;31;9060;-66
2024/04/15 12:38:47;;;;;;;;;14.75;14.75;;;;;;;;6489742;46;8946;-64
2024/04/15 12:44:51;;;;;;;;;9.75;9.75;;;;;;;;6489872;39;9027;-66
2024/04/15 12:50:58;;;;;;;;;14.75;14.00;;;;;;;;6488589;39;9053;-65
2024/04/15 12:57:01;;;;;;;;;21.00;21.00;;;;;;;;6488694;39;9754;-64
2024/04/15 13:03:05;;;;;;;;;8.25;6.50;;;;;;;;6488912;46;9012;-66
2024/04/15 13:09:08;;;;;;;;;11.50;10.50;;;;;;;;6488762;46;9071;-66
2024/04/15 13:15:14;;;;;;;;;57.00;46.75;;;;;;;;6488807;39;9049;-65
2024/04/15 13:21:21;;;;;;;;;8.50;8.50;;;;;;;;6488965;39;8919;-65
2024/04/15 13:27:24;;;;;;;;;5.00;5.00;;;;;;;;6484059;39;8957;-67
2024/04/15 13:33:26;;;;;;;;;55.75;46.75;;;;;;;;6489171;31;8972;-63
2024/04/15 13:39:35;;;;;;;;;50.75;41.00;;;;;;;;6488002;46;9046;-64
2024/04/15 13:45:38;;;;;;;;;13.50;12.25;;;;;;;;6487027;47;9063;-63
2024/04/15 13:51:48;;;;;;;;;8.50;8.25;;;;;;;;6489350;46;8999;-61
2024/04/15 13:57:55;;;;;;;;;8.00;6.75;;;;;;;;6488239;47;9018;-65
2024/04/15 14:03:58;;;;;;;;;5.75;5.75;;;;;;;;6490877;39;8988;-63
2024/04/15 14:10:03;;;;;;;;;6.50;6.50;;;;;;;;6489571;47;9043;-63
2024/04/15 14:16:16;;;;;;;;;7.00;6.75;;;;;;;;6489358;31;9044;-63
2024/04/15 14:22:20;;;;;;;;;8.00;8.00;;;;;;;;6489548;47;8875;-65
2024/04/15 14:28:29;;;;;;;;;7.75;5.75;;;;;;;;6489689;31;8959;-64
2024/04/15 14:34:32;;;;;;;;;8.75;7.00;;;;;;;;6489198;39;8903;-63
2024/04/15 14:40:33;;;;;;;;;6.00;6.00;;;;;;;;6489264;39;9033;-65
2024/04/15 14:46:48;;;;;;;;;5.50;5.50;;;;;;;;6490126;39;8993;-63
2024/04/15 14:52:54;;;;;;;;;8.00;8.00;;;;;;;;6490883;39;8936;-63
2024/04/15 14:58:59;;;;;;;;;7.25;7.00;;;;;;;;6491315;39;9010;-64
2024/04/15 15:05:03;;;;;;;;;6.75;6.00;;;;;;;;6491669;39;8949;-64
2024/04/15 15:11:11;;;;;;;;;6.75;6.75;;;;;;;;6490690;39;9393;-63
2024/04/15 15:17:17;;;;;;;;;11.75;10.75;;;;;;;;6490982;46;8920;-63
2024/04/15 15:23:33;;;;;;;;;10.25;9.00;;;;;;;;6490971;39;8894;-64
2024/04/15 15:29:44;;;;;;;;;8.50;8.00;;;;;;;;6491069;39;8958;-62
2024/04/15 15:35:52;;;;;;;;;6.75;6.75;;;;;;;;6491229;46;8929;-64
2024/04/15 15:42:03;;;;;;;;;6.00;6.00;;;;;;;;6491573;31;9120;-63
2024/04/15 15:48:08;;;;;;;;;6.25;6.25;;;;;;;;6491278;39;8943;-64
2024/04/15 15:54:11;;;;;;;;;8.25;6.50;;;;;;;;6490361;46;9088;-63
2024/04/15 16:00:17;;;;;;;;;6.50;6.50;;;;;;;;6490926;39;8907;-64
2024/04/15 16:06:25;;;;;;;;;6.50;6.50;;;;;;;;6491119;46;8886;-62
2024/04/15 16:12:30;;;;;;;;;8.00;8.00;;;;;;;;6489465;46;8914;-63
2024/04/15 16:18:34;;;;;;;;;6.50;5.50;;;;;;;;6491153;39;8994;-63
2024/04/15 16:24:39;;;;;;;;;8.50;7.25;;;;;;;;6490594;46;8868;-61
2024/04/15 16:30:44;;;;;;;;;12.25;11.00;;;;;;;;6491347;39;8922;-63
2024/04/15 16:36:47;;;;;;;;;8.25;6.75;;;;;;;;6491572;39;8875;-64
2024/04/15 16:42:51;;;;;;;;;13.25;12.00;;;;;;;;6490507;39;8910;-63
2024/04/15 16:48:58;;;;;;;;;9.00;9.00;;;;;;;;6491297;31;9142;-62
2024/04/15 16:55:06;;;;;;;;;41.75;35.50;;;;;;;;6490712;39;9681;-62
2024/04/15 17:01:17;;;;;;;;;28.25;27.50;;;;;;;;6489958;39;8922;-65
2024/04/15 17:07:20;;;;;;;;;46.33;38.00;;;;;;;;6489229;39;9731;-71
2024/04/15 17:13:29;;;;;;;;;29.50;28.00;;;;;;;;6488297;39;8885;-70
2024/04/15 17:19:33;;;;;;;;;18.50;18.25;;;;;;;;6490682;46;8907;-70
2024/04/15 17:25:36;;;;;;;;;17.00;17.00;;;;;;;;6490216;39;8968;-69
2024/04/15 17:31:41;;;;;;;;;38.00;33.00;;;;;;;;6490914;39;9011;-70
2024/04/15 17:37:48;;;;;;;;;25.50;21.75;;;;;;;;6490463;39;8894;-68
2024/04/15 17:43:52;;;;;;;;;22.75;21.00;;;;;;;;6490986;31;8909;-71
2024/04/15 17:49:53;;;;;;;;;19.50;19.50;;;;;;;;6491069;39;8975;-67
2024/04/15 17:56:01;;;;;;;;;20.75;17.75;;;;;;;;6490415;47;8916;-70
2024/04/15 18:02:05;;;;;;;;;16.67;16.67;;;;;;;;6490059;46;8918;-69
2024/04/15 18:08:17;;;;;;;;;31.67;29.33;;;;;;;;6490358;39;9074;-69
2024/04/15 18:14:20;;;;;;;;;29.25;25.50;;;;;;;;6489912;47;8902;-68
2024/04/15 18:20:25;;;;;;;;;19.25;19.00;;;;;;;;6489957;39;8873;-69
2024/04/15 18:26:31;;;;;;;;;31.50;24.75;;;;;;;;6491207;46;8882;-71
2024/04/15 18:32:37;;;;;;;;;16.00;16.00;;;;;;;;6492268;39;8876;-71
2024/04/15 18:38:43;;;;;;;;;22.00;18.75;;;;;;;;6490745;39;9349;-69
2024/04/15 18:44:51;;;;;;;;;22.25;20.00;;;;;;;;6492118;31;8881;-72
2024/04/15 18:51:01;;;;;;;;;24.33;21.00;;;;;;;;6491396;39;9553;-69
2024/04/15 18:57:04;;;;;;;;;21.50;21.50;;;;;;;;6491702;46;8897;-69
2024/04/15 19:03:06;;;;;;;;;22.75;20.75;;;;;;;;6491999;39;8914;-69
2024/04/15 19:09:10;;;;;;;;;26.33;24.33;;;;;;;;6491600;39;9028;-69
2024/04/15 19:15:15;;;;;;;;;28.00;24.50;;;;;;;;6491672;46;8953;-69
2024/04/15 19:21:20;;;;;;;;;27.00;26.00;;;;;;;;6491216;46;8877;-70
2024/04/15 19:27:21;;;;;;;;;29.33;27.67;;;;;;;;6491812;31;8910;-68
2024/04/15 19:33:29;;;;;;;;;37.33;32.67;;;;;;;;6490830;39;8932;-70
2024/04/15 19:39:35;;;;;;;;;41.00;34.00;;;;;;;;6492648;31;8882;-69
2024/04/15 19:45:38;;;;;;;;;39.33;34.00;;;;;;;;6491888;46;8868;-69
2024/04/15 19:51:43;;;;;;;;;37.00;32.67;;;;;;;;6490992;39;9560;-69
2024/04/15 19:57:54;;;;;;;;;31.67;28.67;;;;;;;;6491898;39;8932;-70
2024/04/15 20:03:59;;;;;;;;;33.33;32.33;;;;;;;;6490597;46;8941;-69
2024/04/15 20:10:11;;;;;;;;;41.00;34.33;;;;;;;;6491878;39;8997;-69
2024/04/15 20:16:12;;;;;;;;;37.33;32.33;;;;;;;;6492747;39;8898;-68
2024/04/15 20:22:17;;;;;;;;;29.33;28.00;;;;;;;;6491296;39;9006;-70
2024/04/15 20:28:21;;;;;;;;;25.33;22.33;;;;;;;;6490959;39;8980;-71
2024/04/15 20:34:27;;;;;;;;;24.67;22.00;;;;;;;;6490263;46;9032;-70
2024/04/15 20:40:30;;;;;;;;;16.33;15.67;;;;;;;;6491448;39;9045;-69
2024/04/15 20:46:38;;;;;;;;;15.25;15.00;;;;;;;;6490898;47;8943;-69
2024/04/15 20:52:40;;;;;;;;;13.50;13.50;;;;;;;;6490818;39;8887;-70
2024/04/15 20:58:44;;;;;;;;;15.25;13.25;;;;;;;;6491446;46;8972;-70
2024/04/15 21:04:48;;;;;;;;;12.25;11.25;;;;;;;;6490493;46;8953;-69
2024/04/15 21:10:53;;;;;;;;;12.50;12.25;;;;;;;;6491069;39;9055;-69
2024/04/15 21:17:00;;;;;;;;;12.75;11.25;;;;;;;;6489845;46;9030;-70
2024/04/15 21:23:01;;;;;;;;;15.75;14.00;;;;;;;;6490693;39;8889;-69
2024/04/15 21:29:07;;;;;;;;;13.75;12.75;;;;;;;;6491261;31;8875;-72
2024/04/15 21:35:13;;;;;;;;;14.25;12.75;;;;;;;;6490571;39;8909;-70
2024/04/15 21:41:20;;;;;;;;;17.00;14.50;;;;;;;;6492890;39;8898;-68
2024/04/15 21:47:31;;;;;;;;;14.67;14.00;;;;;;;;6491198;39;9001;-69
2024/04/15 21:53:38;;;;;;;;;14.00;13.00;;;;;;;;6489455;46;8934;-68
2024/04/15 21:59:39;;;;;;;;;14.67;14.00;;;;;;;;6491118;39;9611;-69
2024/04/15 22:05:43;;;;;;;;;13.67;13.33;;;;;;;;6490107;39;8913;-69
2024/04/15 22:18:04;;;;;;;;;16.67;13.00;;;;;;;;6489864;39;9538;-69
2024/04/15 22:24:17;;;;;;;;;16.00;13.00;;;;;;;;6490030;31;8924;-69
2024/04/15 22:30:21;;;;;;;;;14.00;14.00;;;;;;;;6489782;39;9856;-71
2024/04/15 22:36:56;;;;;;;;;16.00;16.00;;;;;;;;6489890;39;9590;-68
2024/04/15 22:43:08;;;;;;;;;12.67;12.67;;;;;;;;6489333;39;9697;-69
2024/04/15 22:49:24;;;;;;;;;17.00;16.00;;;;;;;;6489128;47;8928;-69
2024/04/15 22:55:30;;;;;;;;;14.33;13.33;;;;;;;;6490368;39;8960;-70
2024/04/15 23:01:36;;;;;;;;;13.00;10.67;;;;;;;;6489367;47;8913;-67
2024/04/15 23:07:45;;;;;;;;;12.00;10.50;;;;;;;;6489823;39;9044;-70
2024/04/15 23:13:59;;;;;;;;;19.00;18.00;;;;;;;;6490843;39;8903;-67
2024/04/15 23:20:06;;;;;;;;;19.00;17.67;;;;;;;;6490833;46;9023;-69
2024/04/15 23:26:10;;;;;;;;;17.67;17.67;;;;;;;;6491931;39;8904;-70
2024/04/15 23:32:17;;;;;;;;;14.00;13.00;;;;;;;;6491064;46;8933;-68
2024/04/15 23:38:25;;;;;;;;;16.50;14.50;;;;;;;;6494812;31;8889;-69
2024/04/15 23:44:29;;;;;;;;;14.33;13.33;;;;;;;;6490990;46;9045;-68
2024/04/15 23:51:16;;;;;;;;;14.00;11.33;;;;;;;;6492058;31;9112;-70
2024/04/15 23:57:39;;;;;;;;;13.33;13.00;;;;;;;;6491192;46;8929;-70
